Viking Queen — WDB9919 — position and weather

sailwx.info

Track history (hours):
 
Tides and Currents Weather Stations Pressure Air Temp Water Temp Dewpoint Dewpoint Depression Visibility Wind Speed Wind Dir Waves Ship Positions

Viking Queen

Owner: American River Transportation Company, St Louis, MO. More information available from US FCC via Universal Licensing System and Coast Guard Vessel Documentation Center.

Last reported at 2017-Jan-15 17:13 UTC. Time now 2017-Jan-23 06:35 UTC.
Position N 32°52' W 091°06'.

; draft 3.2 m.

Type: Towing. MMSI: 366985050.

Date/timePositionNaut miles runAvg speedWind from/ knotsBaromVisibWave heightAir tempDewpointWater temp
2017-Jan-15 17:13N 32°52' W 091°06'3 3.8
2017-Jan-15 16:33N 32°50' W 091°09'4 3.9
2017-Jan-15 15:31N 32°46' W 091°10'6 3.2
2017-Jan-15 13:33N 32°43' W 091°03'4 3.6
2017-Jan-15 12:29N 32°40' W 091°06'3 3.6
2017-Jan-15 11:33N 32°38' W 091°09'3 3.5
2017-Jan-15 10:33N 32°35' W 091°07'4 3.7
2017-Jan-15 09:33N 32°31' W 091°06'4 3.7
2017-Jan-15 08:33N 32°28' W 091°06'4 4.3
2017-Jan-15 07:33N 32°26' W 091°01'3 3.2
2017-Jan-15 06:33N 32°23' W 090°60'3 3.0
2017-Jan-15 05:33N 32°21' W 090°57'3 3.2
2017-Jan-15 04:33N 32°18' W 090°55'2 2.4
2017-Jan-15 03:33N 32°17' W 090°57'4 4.3
2017-Jan-15 02:33N 32°13' W 090°59'5 4.7
2017-Jan-15 01:33N 32°08' W 091°00'4 3.9
2017-Jan-15 00:33N 32°08' W 091°05'3 2.9
2017-Jan-14 23:33N 32°05' W 091°05'4 4.2
2017-Jan-14 22:33N 32°01' W 091°05'25 3.9
2017-Jan-14 16:08N 31°42' W 091°24'12 4.2
2017-Jan-14 13:11N 31°31' W 091°31'  
2017-Jan-08 19:33N 29°58' W 090°17'0 0.0
2017-Jan-08 18:33N 29°58' W 090°17'  
2017-Jan-06 07:20N 31°59' W 091°06'6 7.8
2017-Jan-06 06:33N 32°06' W 091°06'4 3.6
2017-Jan-06 05:33N 32°07' W 091°02'7 7.1
2017-Jan-06 04:33N 32°14' W 090°59'7 7.5
2017-Jan-06 03:33N 32°20' W 090°54'6 5.7
2017-Jan-06 02:33N 32°23' W 091°00'8 7.5
2017-Jan-06 01:33N 32°28' W 091°06'8 8.1
2017-Jan-06 00:33N 32°36' W 091°09'  
Track history (hours):
 
Tides and Currents Weather Stations Pressure Air Temp Water Temp Dewpoint Dewpoint Depression Visibility Wind Speed Wind Dir Waves Ship Positions

Viking Queen

Owner: American River Transportation Company, St Louis, MO. More information available from US FCC via Universal Licensing System and Coast Guard Vessel Documentation Center.

Last reported at 2017-Jan-15 17:13 UTC. Time now 2017-Jan-23 06:35 UTC.
Position N 32°52' W 091°06'.

; draft 3.2 m.

Type: Towing. MMSI: 366985050.

Date/timePositionNaut miles runAvg speedWind from/ knotsBaromVisibWave heightAir tempDewpointWater temp
2017-Jan-15 17:13N 32°52' W 091°06'3 3.8
2017-Jan-15 16:33N 32°50' W 091°09'4 3.9
2017-Jan-15 15:31N 32°46' W 091°10'6 3.2
2017-Jan-15 13:33N 32°43' W 091°03'4 3.6
2017-Jan-15 12:29N 32°40' W 091°06'3 3.6
2017-Jan-15 11:33N 32°38' W 091°09'3 3.5
2017-Jan-15 10:33N 32°35' W 091°07'4 3.7
2017-Jan-15 09:33N 32°31' W 091°06'4 3.7
2017-Jan-15 08:33N 32°28' W 091°06'4 4.3
2017-Jan-15 07:33N 32°26' W 091°01'3 3.2
2017-Jan-15 06:33N 32°23' W 090°60'3 3.0
2017-Jan-15 05:33N 32°21' W 090°57'3 3.2
2017-Jan-15 04:33N 32°18' W 090°55'2 2.4
2017-Jan-15 03:33N 32°17' W 090°57'4 4.3
2017-Jan-15 02:33N 32°13' W 090°59'5 4.7
2017-Jan-15 01:33N 32°08' W 091°00'4 3.9
2017-Jan-15 00:33N 32°08' W 091°05'3 2.9
2017-Jan-14 23:33N 32°05' W 091°05'4 4.2
2017-Jan-14 22:33N 32°01' W 091°05'25 3.9
2017-Jan-14 16:08N 31°42' W 091°24'12 4.2
2017-Jan-14 13:11N 31°31' W 091°31'  
2017-Jan-08 19:33N 29°58' W 090°17'0 0.0
2017-Jan-08 18:33N 29°58' W 090°17'  
2017-Jan-06 07:20N 31°59' W 091°06'6 7.8
2017-Jan-06 06:33N 32°06' W 091°06'4 3.6
2017-Jan-06 05:33N 32°07' W 091°02'7 7.1
2017-Jan-06 04:33N 32°14' W 090°59'7 7.5
2017-Jan-06 03:33N 32°20' W 090°54'6 5.7
2017-Jan-06 02:33N 32°23' W 091°00'8 7.5
2017-Jan-06 01:33N 32°28' W 091°06'8 8.1
2017-Jan-06 00:33N 32°36' W 091°09'  

Dump ship's entire track history